sensor_id;sensor_type;location;lat;lon;timestamp;pressure;altitude;pressure_sealevel;temperature;humidity
47636;BME280;33364;50.766;15.338;2023-03-14T00:01:47;93350.13;;;4.02;87.17
47636;BME280;33364;50.766;15.338;2023-03-14T00:04:14;93350.72;;;4.04;86.03
47636;BME280;33364;50.766;15.338;2023-03-14T00:06:40;93345.25;;;3.89;84.84
47636;BME280;33364;50.766;15.338;2023-03-14T00:09:06;93338.00;;;3.96;85.67
47636;BME280;33364;50.766;15.338;2023-03-14T00:11:32;93343.16;;;3.91;84.36
47636;BME280;33364;50.766;15.338;2023-03-14T00:13:58;93340.25;;;4.09;85.55
47636;BME280;33364;50.766;15.338;2023-03-14T00:16:26;93337.94;;;4.13;85.41
47636;BME280;33364;50.766;15.338;2023-03-14T00:18:51;93334.47;;;4.07;84.16
47636;BME280;33364;50.766;15.338;2023-03-14T00:21:18;93316.16;;;3.95;83.20
47636;BME280;33364;50.766;15.338;2023-03-14T00:23:43;93323.19;;;4.12;85.27
47636;BME280;33364;50.766;15.338;2023-03-14T00:26:12;93321.31;;;4.07;84.86
47636;BME280;33364;50.766;15.338;2023-03-14T00:28:39;93311.81;;;4.50;88.68
47636;BME280;33364;50.766;15.338;2023-03-14T00:31:06;93306.03;;;4.48;86.27
47636;BME280;33364;50.766;15.338;2023-03-14T00:33:32;93305.59;;;4.56;86.68
47636;BME280;33364;50.766;15.338;2023-03-14T00:36:04;93311.78;;;4.45;83.38
47636;BME280;33364;50.766;15.338;2023-03-14T00:38:30;93319.59;;;4.40;84.63
47636;BME280;33364;50.766;15.338;2023-03-14T00:40:57;93317.75;;;4.18;82.28
47636;BME280;33364;50.766;15.338;2023-03-14T00:43:22;93311.53;;;4.25;83.93
47636;BME280;33364;50.766;15.338;2023-03-14T00:45:52;93318.06;;;4.00;82.69
47636;BME280;33364;50.766;15.338;2023-03-14T00:48:19;93310.97;;;4.00;84.31
47636;BME280;33364;50.766;15.338;2023-03-14T00:50:46;93307.06;;;4.03;83.84
47636;BME280;33364;50.766;15.338;2023-03-14T00:53:12;93304.44;;;3.81;82.67
47636;BME280;33364;50.766;15.338;2023-03-14T00:55:39;93291.19;;;3.76;83.19
47636;BME280;33364;50.766;15.338;2023-03-14T00:58:05;93284.78;;;3.66;82.91
47636;BME280;33364;50.766;15.338;2023-03-14T01:00:32;93275.69;;;3.74;83.95
47636;BME280;33364;50.766;15.338;2023-03-14T01:02:57;93268.16;;;3.61;82.27
47636;BME280;33364;50.766;15.338;2023-03-14T01:05:24;93260.53;;;3.59;82.28
47636;BME280;33364;50.766;15.338;2023-03-14T01:07:50;93240.63;;;3.63;83.04
47636;BME280;33364;50.766;15.338;2023-03-14T01:10:16;93237.28;;;3.68;84.33
47636;BME280;33364;50.766;15.338;2023-03-14T01:12:42;93230.25;;;3.74;85.21
47636;BME280;33364;50.766;15.338;2023-03-14T01:15:08;93217.16;;;3.79;85.33
47636;BME280;33364;50.766;15.338;2023-03-14T01:17:33;93217.56;;;3.88;85.24
47636;BME280;33364;50.766;15.338;2023-03-14T01:20:00;93206.31;;;3.70;83.64
47636;BME280;33364;50.766;15.338;2023-03-14T01:22:26;93190.00;;;3.68;83.77
47636;BME280;33364;50.766;15.338;2023-03-14T01:24:52;93165.88;;;3.49;82.10
47636;BME280;33364;50.766;15.338;2023-03-14T01:27:17;93155.19;;;3.56;84.93
47636;BME280;33364;50.766;15.338;2023-03-14T01:29:43;93166.22;;;3.58;82.69
47636;BME280;33364;50.766;15.338;2023-03-14T01:32:09;93151.34;;;3.63;83.82
47636;BME280;33364;50.766;15.338;2023-03-14T01:34:35;93136.38;;;3.64;83.90
47636;BME280;33364;50.766;15.338;2023-03-14T01:37:00;93149.97;;;3.83;85.04
47636;BME280;33364;50.766;15.338;2023-03-14T01:39:26;93152.78;;;3.76;84.41
47636;BME280;33364;50.766;15.338;2023-03-14T01:41:53;93147.59;;;3.81;84.63
47636;BME280;33364;50.766;15.338;2023-03-14T01:44:19;93144.88;;;3.98;85.72
47636;BME280;33364;50.766;15.338;2023-03-14T01:46:45;93133.53;;;3.71;83.19
47636;BME280;33364;50.766;15.338;2023-03-14T01:49:21;93136.59;;;3.62;83.62
47636;BME280;33364;50.766;15.338;2023-03-14T01:52:01;93136.97;;;3.71;85.06
47636;BME280;33364;50.766;15.338;2023-03-14T01:54:38;93141.31;;;3.60;82.53
47636;BME280;33364;50.766;15.338;2023-03-14T02:00:12;93132.94;;;3.41;82.58
47636;BME280;33364;50.766;15.338;2023-03-14T02:02:42;93137.66;;;3.39;83.11
47636;BME280;33364;50.766;15.338;2023-03-14T02:05:10;93145.53;;;3.39;84.53
47636;BME280;33364;50.766;15.338;2023-03-14T02:07:43;93140.00;;;3.19;84.68
47636;BME280;33364;50.766;15.338;2023-03-14T02:10:11;93126.88;;;3.19;83.41
47636;BME280;33364;50.766;15.338;2023-03-14T02:12:37;93129.91;;;3.27;85.88
47636;BME280;33364;50.766;15.338;2023-03-14T02:15:05;93121.53;;;3.08;83.12
47636;BME280;33364;50.766;15.338;2023-03-14T02:17:30;93127.66;;;2.97;84.10
47636;BME280;33364;50.766;15.338;2023-03-14T02:22:39;93123.41;;;3.13;84.16
47636;BME280;33364;50.766;15.338;2023-03-14T02:27:50;93130.81;;;3.16;84.36
47636;BME280;33364;50.766;15.338;2023-03-14T02:30:24;93140.53;;;3.16;83.36
47636;BME280;33364;50.766;15.338;2023-03-14T02:32:54;93127.53;;;3.26;84.96
47636;BME280;33364;50.766;15.338;2023-03-14T02:35:23;93120.00;;;3.35;85.42
47636;BME280;33364;50.766;15.338;2023-03-14T02:37:57;93112.94;;;3.35;83.98
47636;BME280;33364;50.766;15.338;2023-03-14T02:40:26;93111.47;;;3.44;84.12
47636;BME280;33364;50.766;15.338;2023-03-14T02:42:52;93118.50;;;3.39;83.36
47636;BME280;33364;50.766;15.338;2023-03-14T02:47:48;93113.53;;;3.42;85.20
47636;BME280;33364;50.766;15.338;2023-03-14T02:50:20;93082.34;;;3.46;84.44
47636;BME280;33364;50.766;15.338;2023-03-14T02:52:48;93088.31;;;3.41;83.05
47636;BME280;33364;50.766;15.338;2023-03-14T02:55:15;93087.13;;;3.76;85.35
47636;BME280;33364;50.766;15.338;2023-03-14T02:57:45;93095.16;;;3.42;84.64
47636;BME280;33364;50.766;15.338;2023-03-14T03:00:11;93102.50;;;3.40;84.10
47636;BME280;33364;50.766;15.338;2023-03-14T03:02:36;93105.31;;;3.34;83.39
47636;BME280;33364;50.766;15.338;2023-03-14T03:05:02;93092.09;;;3.28;82.22
47636;BME280;33364;50.766;15.338;2023-03-14T03:07:28;93090.03;;;3.30;81.60
47636;BME280;33364;50.766;15.338;2023-03-14T03:09:54;93088.88;;;3.43;83.82
47636;BME280;33364;50.766;15.338;2023-03-14T03:12:19;93089.31;;;3.35;81.38
47636;BME280;33364;50.766;15.338;2023-03-14T03:14:45;93085.88;;;3.35;82.51
47636;BME280;33364;50.766;15.338;2023-03-14T03:17:11;93073.19;;;3.26;81.89
47636;BME280;33364;50.766;15.338;2023-03-14T03:19:37;93081.78;;;3.00;81.60
47636;BME280;33364;50.766;15.338;2023-03-14T03:22:02;93076.97;;;3.13;83.18
47636;BME280;33364;50.766;15.338;2023-03-14T03:24:28;93078.63;;;3.20;84.70
47636;BME280;33364;50.766;15.338;2023-03-14T03:26:54;93087.34;;;3.03;81.43
47636;BME280;33364;50.766;15.338;2023-03-14T03:29:20;93083.75;;;3.09;84.25
47636;BME280;33364;50.766;15.338;2023-03-14T03:31:46;93082.81;;;2.99;84.52
47636;BME280;33364;50.766;15.338;2023-03-14T03:34:12;93077.44;;;3.10;84.71
47636;BME280;33364;50.766;15.338;2023-03-14T03:36:38;93071.66;;;3.08;83.43
47636;BME280;33364;50.766;15.338;2023-03-14T03:39:04;93080.22;;;3.21;83.40
47636;BME280;33364;50.766;15.338;2023-03-14T03:41:30;93079.06;;;3.11;81.91
47636;BME280;33364;50.766;15.338;2023-03-14T03:43:56;93083.31;;;3.18;84.31
47636;BME280;33364;50.766;15.338;2023-03-14T03:46:22;93069.53;;;2.83;80.56
47636;BME280;33364;50.766;15.338;2023-03-14T03:48:54;93064.94;;;2.73;81.93
47636;BME280;33364;50.766;15.338;2023-03-14T03:51:20;93065.00;;;2.79;84.41
47636;BME280;33364;50.766;15.338;2023-03-14T03:53:46;93067.31;;;2.97;84.42
47636;BME280;33364;50.766;15.338;2023-03-14T03:56:12;93070.88;;;3.08;85.90
47636;BME280;33364;50.766;15.338;2023-03-14T03:58:38;93066.53;;;2.97;83.18
47636;BME280;33364;50.766;15.338;2023-03-14T04:01:05;93082.53;;;2.95;83.62
47636;BME280;33364;50.766;15.338;2023-03-14T04:03:32;93078.94;;;3.01;83.75
47636;BME280;33364;50.766;15.338;2023-03-14T04:06:05;93065.28;;;2.99;82.71
47636;BME280;33364;50.766;15.338;2023-03-14T04:08:32;93066.59;;;3.02;83.79
47636;BME280;33364;50.766;15.338;2023-03-14T04:10:58;93047.50;;;3.06;82.26
47636;BME280;33364;50.766;15.338;2023-03-14T04:13:25;93039.38;;;3.08;83.22
47636;BME280;33364;50.766;15.338;2023-03-14T04:15:51;93031.56;;;3.13;83.50
47636;BME280;33364;50.766;15.338;2023-03-14T04:18:18;93026.13;;;3.20;82.95
47636;BME280;33364;50.766;15.338;2023-03-14T04:20:44;93029.06;;;3.23;83.00
47636;BME280;33364;50.766;15.338;2023-03-14T04:23:10;93016.13;;;3.39;83.28
47636;BME280;33364;50.766;15.338;2023-03-14T04:25:35;93014.97;;;3.29;83.65
47636;BME280;33364;50.766;15.338;2023-03-14T04:28:02;93018.03;;;3.21;82.42
47636;BME280;33364;50.766;15.338;2023-03-14T04:30:29;93004.41;;;3.24;82.99
47636;BME280;33364;50.766;15.338;2023-03-14T04:32:55;93001.19;;;3.17;82.30
47636;BME280;33364;50.766;15.338;2023-03-14T04:35:21;93001.84;;;3.29;83.98
47636;BME280;33364;50.766;15.338;2023-03-14T04:37:47;93004.13;;;3.21;81.62
47636;BME280;33364;50.766;15.338;2023-03-14T04:40:15;93002.63;;;3.30;82.53
47636;BME280;33364;50.766;15.338;2023-03-14T04:42:41;93020.25;;;3.35;82.75
47636;BME280;33364;50.766;15.338;2023-03-14T04:45:07;93018.44;;;3.35;81.73
47636;BME280;33364;50.766;15.338;2023-03-14T04:47:33;93017.63;;;3.35;81.29
47636;BME280;33364;50.766;15.338;2023-03-14T04:49:59;93017.03;;;3.27;82.54
47636;BME280;33364;50.766;15.338;2023-03-14T04:52:26;93017.53;;;3.24;82.72
47636;BME280;33364;50.766;15.338;2023-03-14T04:54:51;93020.88;;;3.42;85.30
47636;BME280;33364;50.766;15.338;2023-03-14T04:57:17;93009.25;;;3.38;82.73
47636;BME280;33364;50.766;15.338;2023-03-14T04:59:43;93008.34;;;3.27;81.59
47636;BME280;33364;50.766;15.338;2023-03-14T05:02:09;92998.00;;;3.15;82.46
47636;BME280;33364;50.766;15.338;2023-03-14T05:04:35;92996.31;;;3.04;81.77
47636;BME280;33364;50.766;15.338;2023-03-14T05:07:01;92999.88;;;3.20;83.55
47636;BME280;33364;50.766;15.338;2023-03-14T05:09:26;93000.38;;;3.17;83.71
47636;BME280;33364;50.766;15.338;2023-03-14T05:11:52;93013.78;;;3.20;84.79
47636;BME280;33364;50.766;15.338;2023-03-14T05:14:18;93022.72;;;3.19;85.05
47636;BME280;33364;50.766;15.338;2023-03-14T05:16:44;93018.31;;;3.25;82.77
47636;BME280;33364;50.766;15.338;2023-03-14T05:19:10;93009.03;;;3.39;86.43
47636;BME280;33364;50.766;15.338;2023-03-14T05:21:37;93005.06;;;3.64;86.36
47636;BME280;33364;50.766;15.338;2023-03-14T05:24:02;93000.69;;;3.47;84.01
47636;BME280;33364;50.766;15.338;2023-03-14T05:26:28;93018.97;;;3.37;83.16
47636;BME280;33364;50.766;15.338;2023-03-14T05:28:54;93020.72;;;3.54;85.41
47636;BME280;33364;50.766;15.338;2023-03-14T05:31:20;93015.66;;;3.47;83.56
47636;BME280;33364;50.766;15.338;2023-03-14T05:33:46;93005.50;;;3.56;84.11
47636;BME280;33364;50.766;15.338;2023-03-14T05:36:12;93007.53;;;3.48;84.20
47636;BME280;33364;50.766;15.338;2023-03-14T05:38:38;93009.69;;;3.52;85.33
47636;BME280;33364;50.766;15.338;2023-03-14T05:41:04;93020.91;;;3.47;83.66
47636;BME280;33364;50.766;15.338;2023-03-14T05:43:29;93023.19;;;3.38;84.12
47636;BME280;33364;50.766;15.338;2023-03-14T05:45:55;93020.31;;;3.40;84.34
47636;BME280;33364;50.766;15.338;2023-03-14T05:48:21;93017.91;;;3.38;84.16
47636;BME280;33364;50.766;15.338;2023-03-14T05:50:47;93030.94;;;3.50;85.21
47636;BME280;33364;50.766;15.338;2023-03-14T05:53:13;93026.22;;;3.52;84.48
47636;BME280;33364;50.766;15.338;2023-03-14T05:55:40;93016.28;;;3.59;85.74
47636;BME280;33364;50.766;15.338;2023-03-14T05:58:05;93004.06;;;3.70;84.98
47636;BME280;33364;50.766;15.338;2023-03-14T06:00:31;93002.97;;;3.66;84.30
47636;BME280;33364;50.766;15.338;2023-03-14T06:02:57;92995.50;;;3.53;84.31
47636;BME280;33364;50.766;15.338;2023-03-14T06:05:23;93007.03;;;3.24;83.24
47636;BME280;33364;50.766;15.338;2023-03-14T06:07:49;93008.06;;;3.23;84.14
47636;BME280;33364;50.766;15.338;2023-03-14T06:10:15;93004.34;;;3.19;84.73
47636;BME280;33364;50.766;15.338;2023-03-14T06:12:40;93007.47;;;2.94;85.00
47636;BME280;33364;50.766;15.338;2023-03-14T06:15:07;92998.88;;;3.21;86.68
47636;BME280;33364;50.766;15.338;2023-03-14T06:17:33;93009.50;;;3.36;86.55
47636;BME280;33364;50.766;15.338;2023-03-14T06:19:58;92993.22;;;3.34;85.59
47636;BME280;33364;50.766;15.338;2023-03-14T06:22:24;92976.03;;;3.48;87.11
47636;BME280;33364;50.766;15.338;2023-03-14T06:24:50;92970.91;;;3.64;87.32
47636;BME280;33364;50.766;15.338;2023-03-14T06:27:15;92972.13;;;3.83;86.39
47636;BME280;33364;50.766;15.338;2023-03-14T06:29:42;92979.25;;;3.88;86.65
47636;BME280;33364;50.766;15.338;2023-03-14T06:32:07;92987.94;;;3.94;86.45
47636;BME280;33364;50.766;15.338;2023-03-14T06:34:33;93006.84;;;3.91;84.42
47636;BME280;33364;50.766;15.338;2023-03-14T06:36:59;93010.63;;;4.05;86.30
47636;BME280;33364;50.766;15.338;2023-03-14T06:39:24;93002.56;;;3.79;82.88
47636;BME280;33364;50.766;15.338;2023-03-14T06:41:50;92995.31;;;3.64;84.64
47636;BME280;33364;50.766;15.338;2023-03-14T06:44:16;92995.28;;;3.59;84.45
47636;BME280;33364;50.766;15.338;2023-03-14T06:46:42;93004.03;;;3.65;85.43
47636;BME280;33364;50.766;15.338;2023-03-14T06:49:07;93021.22;;;3.78;86.48
47636;BME280;33364;50.766;15.338;2023-03-14T06:51:33;93012.84;;;3.81;85.84
47636;BME280;33364;50.766;15.338;2023-03-14T06:53:59;93004.19;;;3.85;86.09
47636;BME280;33364;50.766;15.338;2023-03-14T06:56:26;93000.34;;;3.98;86.47
47636;BME280;33364;50.766;15.338;2023-03-14T06:58:52;92994.34;;;4.03;85.40
47636;BME280;33364;50.766;15.338;2023-03-14T07:01:24;92993.38;;;4.14;85.49
47636;BME280;33364;50.766;15.338;2023-03-14T07:03:51;92989.34;;;4.01;84.76
47636;BME280;33364;50.766;15.338;2023-03-14T07:06:17;92990.66;;;3.99;84.92
47636;BME280;33364;50.766;15.338;2023-03-14T07:08:43;92983.16;;;3.85;85.34
47636;BME280;33364;50.766;15.338;2023-03-14T07:11:09;92988.78;;;3.94;85.79
47636;BME280;33364;50.766;15.338;2023-03-14T07:13:39;93002.97;;;3.98;85.79
47636;BME280;33364;50.766;15.338;2023-03-14T07:16:06;93000.94;;;4.06;86.89
47636;BME280;33364;50.766;15.338;2023-03-14T07:18:32;93023.50;;;4.01;86.31
47636;BME280;33364;50.766;15.338;2023-03-14T07:20:58;93024.38;;;4.12;86.83
47636;BME280;33364;50.766;15.338;2023-03-14T07:23:24;93023.41;;;4.23;87.18
47636;BME280;33364;50.766;15.338;2023-03-14T07:25:49;93029.78;;;4.33;86.58
47636;BME280;33364;50.766;15.338;2023-03-14T07:28:16;93029.81;;;4.38;86.28
47636;BME280;33364;50.766;15.338;2023-03-14T07:30:42;93041.91;;;4.39;85.96
47636;BME280;33364;50.766;15.338;2023-03-14T07:33:08;93039.28;;;4.39;85.06
47636;BME280;33364;50.766;15.338;2023-03-14T07:35:33;93034.94;;;4.55;86.98
47636;BME280;33364;50.766;15.338;2023-03-14T07:37:59;93036.22;;;4.52;85.09
47636;BME280;33364;50.766;15.338;2023-03-14T07:40:25;93034.34;;;4.48;84.40
47636;BME280;33364;50.766;15.338;2023-03-14T07:42:51;93035.59;;;4.35;83.99
47636;BME280;33364;50.766;15.338;2023-03-14T07:45:20;93045.78;;;4.31;83.60
47636;BME280;33364;50.766;15.338;2023-03-14T07:47:46;93040.25;;;4.28;85.47
47636;BME280;33364;50.766;15.338;2023-03-14T07:50:12;93044.84;;;4.48;86.13
47636;BME280;33364;50.766;15.338;2023-03-14T07:52:38;93053.19;;;4.34;82.74
47636;BME280;33364;50.766;15.338;2023-03-14T07:55:04;93050.81;;;4.33;84.63
47636;BME280;33364;50.766;15.338;2023-03-14T07:57:30;93048.09;;;4.22;84.86
47636;BME280;33364;50.766;15.338;2023-03-14T07:59:55;93050.28;;;4.31;86.51
47636;BME280;33364;50.766;15.338;2023-03-14T08:02:21;93046.03;;;4.30;84.21
47636;BME280;33364;50.766;15.338;2023-03-14T08:04:52;93046.28;;;4.28;84.96
47636;BME280;33364;50.766;15.338;2023-03-14T08:07:21;93040.75;;;4.25;84.24
47636;BME280;33364;50.766;15.338;2023-03-14T08:09:46;93039.78;;;4.03;83.09
47636;BME280;33364;50.766;15.338;2023-03-14T08:12:12;93032.72;;;4.04;83.73
47636;BME280;33364;50.766;15.338;2023-03-14T08:14:38;93031.94;;;4.09;85.01
47636;BME280;33364;50.766;15.338;2023-03-14T08:17:04;93029.00;;;4.00;84.30
47636;BME280;33364;50.766;15.338;2023-03-14T08:19:30;93028.44;;;3.93;86.57
47636;BME280;33364;50.766;15.338;2023-03-14T08:21:56;93025.88;;;4.03;86.34
47636;BME280;33364;50.766;15.338;2023-03-14T08:24:21;93025.97;;;4.18;86.07
47636;BME280;33364;50.766;15.338;2023-03-14T08:26:48;93024.13;;;4.14;86.12
47636;BME280;33364;50.766;15.338;2023-03-14T08:29:26;93016.97;;;4.04;84.63
47636;BME280;33364;50.766;15.338;2023-03-14T08:31:55;93011.06;;;3.92;85.17
47636;BME280;33364;50.766;15.338;2023-03-14T08:34:20;93017.78;;;4.10;86.74
47636;BME280;33364;50.766;15.338;2023-03-14T08:36:46;93014.56;;;4.35;87.16
47636;BME280;33364;50.766;15.338;2023-03-14T08:39:12;93002.13;;;4.68;88.69
47636;BME280;33364;50.766;15.338;2023-03-14T08:41:41;93004.78;;;4.78;87.82
47636;BME280;33364;50.766;15.338;2023-03-14T08:44:11;93009.03;;;4.84;86.40
47636;BME280;33364;50.766;15.338;2023-03-14T08:46:38;93009.78;;;4.74;86.08
47636;BME280;33364;50.766;15.338;2023-03-14T08:49:04;93009.28;;;4.83;86.81
47636;BME280;33364;50.766;15.338;2023-03-14T08:51:33;93014.34;;;5.00;86.32
47636;BME280;33364;50.766;15.338;2023-03-14T08:54:02;93015.88;;;4.85;85.37
47636;BME280;33364;50.766;15.338;2023-03-14T08:56:28;93022.72;;;4.86;86.29
47636;BME280;33364;50.766;15.338;2023-03-14T08:59:00;93021.16;;;4.90;86.23
47636;BME280;33364;50.766;15.338;2023-03-14T09:01:26;93020.44;;;5.05;87.20
47636;BME280;33364;50.766;15.338;2023-03-14T09:03:52;93011.81;;;5.20;87.11
47636;BME280;33364;50.766;15.338;2023-03-14T09:06:17;93015.03;;;5.43;86.90
47636;BME280;33364;50.766;15.338;2023-03-14T09:08:44;93017.69;;;5.43;86.14
47636;BME280;33364;50.766;15.338;2023-03-14T09:11:11;93022.38;;;5.36;85.83
47636;BME280;33364;50.766;15.338;2023-03-14T09:13:37;93028.75;;;5.55;86.46
47636;BME280;33364;50.766;15.338;2023-03-14T09:16:07;93018.28;;;5.70;86.01
47636;BME280;33364;50.766;15.338;2023-03-14T09:18:32;93013.00;;;5.70;84.59
47636;BME280;33364;50.766;15.338;2023-03-14T09:21:02;93011.66;;;5.68;85.10
47636;BME280;33364;50.766;15.338;2023-03-14T09:23:28;93010.38;;;5.86;85.68
47636;BME280;33364;50.766;15.338;2023-03-14T09:25:56;93026.19;;;5.91;85.00
47636;BME280;33364;50.766;15.338;2023-03-14T09:28:31;93019.34;;;5.95;83.63
47636;BME280;33364;50.766;15.338;2023-03-14T09:31:08;93014.81;;;5.65;83.56
47636;BME280;33364;50.766;15.338;2023-03-14T09:33:34;93014.78;;;5.49;84.57
47636;BME280;33364;50.766;15.338;2023-03-14T09:36:01;93016.63;;;5.54;84.35
47636;BME280;33364;50.766;15.338;2023-03-14T09:38:27;93001.38;;;5.61;84.76
47636;BME280;33364;50.766;15.338;2023-03-14T09:40:54;93005.88;;;5.66;83.59
47636;BME280;33364;50.766;15.338;2023-03-14T09:43:22;93003.50;;;5.64;84.93
47636;BME280;33364;50.766;15.338;2023-03-14T09:45:50;93004.06;;;5.92;85.41
47636;BME280;33364;50.766;15.338;2023-03-14T09:48:22;93009.09;;;6.04;84.34
47636;BME280;33364;50.766;15.338;2023-03-14T09:50:51;93012.28;;;6.16;84.46
47636;BME280;33364;50.766;15.338;2023-03-14T09:53:22;93012.50;;;6.30;83.66
47636;BME280;33364;50.766;15.338;2023-03-14T09:55:50;93001.41;;;6.43;83.54
47636;BME280;33364;50.766;15.338;2023-03-14T09:58:19;93005.38;;;6.51;82.98
47636;BME280;33364;50.766;15.338;2023-03-14T10:00:46;93016.19;;;6.55;82.45
47636;BME280;33364;50.766;15.338;2023-03-14T10:05:40;93006.19;;;6.41;83.04
47636;BME280;33364;50.766;15.338;2023-03-14T10:08:10;93013.03;;;6.42;82.76
47636;BME280;33364;50.766;15.338;2023-03-14T10:10:37;93001.94;;;6.46;83.16
47636;BME280;33364;50.766;15.338;2023-03-14T10:13:25;93011.94;;;6.69;82.82
47636;BME280;33364;50.766;15.338;2023-03-14T10:15:59;93015.06;;;6.76;81.95
47636;BME280;33364;50.766;15.338;2023-03-14T10:18:29;93016.16;;;6.70;80.89
47636;BME280;33364;50.766;15.338;2023-03-14T10:21:21;93012.44;;;6.76;81.94
47636;BME280;33364;50.766;15.338;2023-03-14T10:23:52;93007.69;;;6.84;82.31
47636;BME280;33364;50.766;15.338;2023-03-14T10:26:24;93005.22;;;7.03;81.87
47636;BME280;33364;50.766;15.338;2023-03-14T10:28:53;92999.41;;;7.06;81.91
47636;BME280;33364;50.766;15.338;2023-03-14T10:31:25;92997.03;;;7.04;81.32
47636;BME280;33364;50.766;15.338;2023-03-14T10:34:03;92999.13;;;7.07;80.74
47636;BME280;33364;50.766;15.338;2023-03-14T10:36:31;93005.75;;;7.10;80.97
47636;BME280;33364;50.766;15.338;2023-03-14T10:39:18;92986.47;;;7.04;80.17
47636;BME280;33364;50.766;15.338;2023-03-14T10:41:48;92995.25;;;6.89;80.59
47636;BME280;33364;50.766;15.338;2023-03-14T10:44:20;92993.41;;;6.79;81.07
47636;BME280;33364;50.766;15.338;2023-03-14T10:46:55;92991.84;;;6.84;80.96
47636;BME280;33364;50.766;15.338;2023-03-14T10:49:36;92993.19;;;6.71;81.27
47636;BME280;33364;50.766;15.338;2023-03-14T10:52:26;93008.53;;;6.53;81.46
47636;BME280;33364;50.766;15.338;2023-03-14T10:55:08;93002.72;;;6.56;80.67
47636;BME280;33364;50.766;15.338;2023-03-14T10:57:41;92996.41;;;6.52;82.97
47636;BME280;33364;50.766;15.338;2023-03-14T11:00:18;92999.59;;;6.44;80.82
47636;BME280;33364;50.766;15.338;2023-03-14T11:05:41;92993.22;;;6.60;80.65
47636;BME280;33364;50.766;15.338;2023-03-14T11:08:15;92996.06;;;6.79;79.56
47636;BME280;33364;50.766;15.338;2023-03-14T11:10:48;92999.97;;;6.97;78.82
47636;BME280;33364;50.766;15.338;2023-03-14T11:13:24;93011.28;;;7.13;78.81
47636;BME280;33364;50.766;15.338;2023-03-14T11:26:44;93001.50;;;7.14;78.05
47636;BME280;33364;50.766;15.338;2023-03-14T11:32:14;92996.91;;;7.35;76.94
47636;BME280;33364;50.766;15.338;2023-03-14T11:34:54;92991.59;;;7.40;77.43
47636;BME280;33364;50.766;15.338;2023-03-14T11:40:00;92990.47;;;7.51;75.73
47636;BME280;33364;50.766;15.338;2023-03-14T11:42:27;92996.00;;;7.55;75.53
47636;BME280;33364;50.766;15.338;2023-03-14T11:44:55;92996.28;;;7.53;75.65
47636;BME280;33364;50.766;15.338;2023-03-14T11:47:26;92991.06;;;7.43;76.27
47636;BME280;33364;50.766;15.338;2023-03-14T11:50:18;93002.72;;;7.32;76.46
47636;BME280;33364;50.766;15.338;2023-03-14T11:55:29;93002.53;;;7.18;75.82
47636;BME280;33364;50.766;15.338;2023-03-14T11:58:01;92999.13;;;7.07;76.23
47636;BME280;33364;50.766;15.338;2023-03-14T12:00:28;93002.03;;;7.11;76.02
47636;BME280;33364;50.766;15.338;2023-03-14T12:05:50;92994.22;;;6.80;77.54
47636;BME280;33364;50.766;15.338;2023-03-14T12:08:37;92987.91;;;6.76;76.66
47636;BME280;33364;50.766;15.338;2023-03-14T12:11:08;92994.53;;;6.58;78.17
47636;BME280;33364;50.766;15.338;2023-03-14T12:13:37;92987.69;;;6.62;77.27
47636;BME280;33364;50.766;15.338;2023-03-14T12:16:19;92995.09;;;6.45;77.64
47636;BME280;33364;50.766;15.338;2023-03-14T12:18:50;92981.41;;;6.22;80.05
47636;BME280;33364;50.766;15.338;2023-03-14T12:21:16;92990.91;;;6.07;78.84
47636;BME280;33364;50.766;15.338;2023-03-14T12:23:52;92976.16;;;6.06;79.21
47636;BME280;33364;50.766;15.338;2023-03-14T12:26:27;92985.88;;;5.91;79.35
47636;BME280;33364;50.766;15.338;2023-03-14T12:31:36;92968.97;;;5.92;79.00
47636;BME280;33364;50.766;15.338;2023-03-14T12:39:47;92964.78;;;5.96;79.00
47636;BME280;33364;50.766;15.338;2023-03-14T12:42:20;92964.53;;;5.97;78.96
47636;BME280;33364;50.766;15.338;2023-03-14T12:44:51;92961.34;;;5.85;79.59
47636;BME280;33364;50.766;15.338;2023-03-14T12:49:44;92956.59;;;6.13;79.00
47636;BME280;33364;50.766;15.338;2023-03-14T12:55:04;92953.38;;;6.52;76.49
47636;BME280;33364;50.766;15.338;2023-03-14T13:00:23;92952.81;;;6.65;76.22
47636;BME280;33364;50.766;15.338;2023-03-14T13:03:02;92955.91;;;6.88;75.66
47636;BME280;33364;50.766;15.338;2023-03-14T13:05:51;92945.09;;;6.89;75.33
47636;BME280;33364;50.766;15.338;2023-03-14T13:08:36;92944.81;;;6.91;74.64
47636;BME280;33364;50.766;15.338;2023-03-14T13:11:06;92935.56;;;6.98;74.33
47636;BME280;33364;50.766;15.338;2023-03-14T13:13:35;92940.28;;;7.02;73.93
47636;BME280;33364;50.766;15.338;2023-03-14T13:16:02;92940.53;;;7.05;74.69
47636;BME280;33364;50.766;15.338;2023-03-14T13:18:39;92930.00;;;7.00;74.20
47636;BME280;33364;50.766;15.338;2023-03-14T13:21:11;92932.88;;;7.04;74.92
47636;BME280;33364;50.766;15.338;2023-03-14T13:23:38;92942.38;;;7.10;74.90
47636;BME280;33364;50.766;15.338;2023-03-14T13:26:13;92929.06;;;7.25;74.10
47636;BME280;33364;50.766;15.338;2023-03-14T13:28:40;92922.34;;;7.43;73.44
47636;BME280;33364;50.766;15.338;2023-03-14T13:31:23;92941.34;;;7.50;72.56
47636;BME280;33364;50.766;15.338;2023-03-14T13:34:06;92935.03;;;7.46;74.37
47636;BME280;33364;50.766;15.338;2023-03-14T13:36:35;92937.34;;;7.53;73.74
47636;BME280;33364;50.766;15.338;2023-03-14T13:39:02;92926.00;;;7.52;72.91
47636;BME280;33364;50.766;15.338;2023-03-14T13:41:30;92932.84;;;7.53;72.71
47636;BME280;33364;50.766;15.338;2023-03-14T13:44:02;92938.72;;;7.45;72.99
47636;BME280;33364;50.766;15.338;2023-03-14T13:46:29;92928.47;;;7.39;73.52
47636;BME280;33364;50.766;15.338;2023-03-14T13:48:58;92926.63;;;7.39;73.85
47636;BME280;33364;50.766;15.338;2023-03-14T13:51:26;92919.94;;;7.47;75.40
47636;BME280;33364;50.766;15.338;2023-03-14T13:53:57;92921.50;;;7.87;73.55
47636;BME280;33364;50.766;15.338;2023-03-14T13:56:30;92919.75;;;8.07;72.16
47636;BME280;33364;50.766;15.338;2023-03-14T13:58:56;92920.41;;;8.23;72.40
47636;BME280;33364;50.766;15.338;2023-03-14T14:03:55;92921.97;;;8.53;68.48